Terminal Aerodrome Forecast
Issued by NWS Charleston, WV

Current Version | Previous Version | Text Only | Print | Product List | Glossary Off
Versions: 1 2 3 4 5 6 7 8 9 10 11 12 13 14 15 16 17 18 19 20 21 22 23 24 25 26

000
FTUS41 KRLX 281725
TAFCRW
TAF
KCRW 281725Z 2818/2918 31007KT P6SM SCT030
     FM290500 00000KT 4SM BR FEW045
     FM290800 00000KT 1/4SM FG VV001
     FM291200 00000KT 1SM BR BKN001
     FM291300 VRB04KT P6SM SCT030=

USA.gov is the U.S. government's official web portal to all federal, state and local government web resources and services.